logo
Search for airport 
image banner adimage banner adimage banner ad
image banner ad

OITP - Parsabade Moghan

Located in Parsabade Moghan, Iran, Islamic Republic of

ICAO - OITP, IATA - PFQ

Data provided by Airmate  

General information

Coordinates: N39°36'19" E47°52'34"
Elevation is 249 feet MSL.
 
View others Airports in Ardabil Province

Operational data

Special qualification required
Current time UTC:
Current local time:
Weather
METAR: OITP 220900Z 15016KT CAVOK 29/10 Q1013
View NOTAMs / SUP AIP / TFR affecting this airport [VIEW]
Communications frequencies: [VIEW]

Runways:

RWY identifierQFULength (ft)Width (ft)SurfaceLDA (ft)
11111°8484148ASP
29291°8484148ASP

Airport contact information

Address: Parsabade Moghan Iran, Islamic Republic of

Satellite view of OITP